Terminal Aerodrome Forecast
Issued by NWS

Home | Current Version | Previous Version | Text Only | Print | Product List | Glossary Off
Versions: 1 2 3 4 5 6 7 8 9 10 11 12

320
FTUS43 KGRB 161739
TAFCWA
TAF
KCWA 161739Z 1618/1718 28010KT P6SM SKC
     FM170000 23006KT P6SM SKC
     FM170600 20005KT P6SM BKN250 WS010/22035KT
     FM171400 20010G20KT 6SM -SN BR SCT012 OVC020 PROB30 1715/1718
      3SM -SN BR BKN012=

USA.gov is the U.S. government's official web portal to all federal, state and local government web resources and services.